Buffalo, WY (82834)

10:52 PM MST on February 10, 2016 (GMT -0700)
Buffalo | | Change Station
CLOSE
Current Station
Personal Weather Station
Location: Buffalo, WY
Elevation: 4708 ft
Nearby Weather Stations

Elev 4708 ft 44.34 °N, 106.70 °W | Updated 14 seconds ago

Clear
Clear
35.1 °F
Feels Like 35 °F
N
0.0
Wind Variable Wind from SW
Gusts 0.0 mph

Today
High -- | Low -- °F
--% Chance of Precip.
Yesterday
High -- | Low -- °F
Precip. -- in
Pressure 30.07 in
Visibility 10.0 miles
Clouds Clear
Windchill 35 °F
Dew Point 26 °F
Humidity 68%
Rainfall 0.00 in
Snow Depth Not available.
7:14 AM 5:28 PM
Waxing Crescent, 9% visible
METAR KBYG 110453Z AUTO 24008KT 10SM CLR 05/M04 A3011 RMK AO2 SLP181 T00501044
Pressure 30.07 in
Visibility 10.0 miles
Clouds Clear
Windchill 35 °F
Dew Point 26 °F
Humidity 68%
Rainfall 0.00 in
Snow Depth Not available.
7:14 AM 5:28 PM
Waxing Crescent, 9% visible
METAR KBYG 110453Z AUTO 24008KT 10SM CLR 05/M04 A3011 RMK AO2 SLP181 T00501044

10-Day Weather Forecast

Almanac

Astronomy

Feb. 10, 2016 Rise Set
Actual Time
Civil Twilight
Nautical Twilight
Astronomical Twilight
Moon
Length of Visible Light
Length of Day
Tomorrow will be .
, % of the Moon is Illuminated

Today's Extremes

State Highs State Lows

Community

WunderPhotos

Upload Photos

1,892,023 photos uploaded!

WunderBlog® & News

Nearby

Air Quality

  Air Quality AQ Index Pollutant
Not available.

Snow Depth

Station Depth Elevation

Earthquake Activity

City Distance Mag. Time & Date
Minimum magnitude displayed is 2.5.

Coastal Water Temperatures

Place Temperature

Stations

Nearby Weather Stations

Station Location Temp. Windchill Dew Point Humidity Wind Precip. Elev Updated Type
                   

Watches & Warnings

There are currently no watches in effect.